sensor_id;sensor_type;location;lat;lon;timestamp;P1;durP1;ratioP1;P2;durP2;ratioP2
17153;SDS011;8692;52.164;7.558;2024-03-08T00:00:11;18.47;;;13.30;;
17153;SDS011;8692;52.164;7.558;2024-03-08T00:02:44;18.30;;;12.87;;
17153;SDS011;8692;52.164;7.558;2024-03-08T00:05:13;20.63;;;13.30;;
17153;SDS011;8692;52.164;7.558;2024-03-08T00:07:42;20.87;;;11.53;;
17153;SDS011;8692;52.164;7.558;2024-03-08T00:10:10;19.97;;;12.47;;
17153;SDS011;8692;52.164;7.558;2024-03-08T00:12:41;18.97;;;12.40;;
17153;SDS011;8692;52.164;7.558;2024-03-08T00:15:10;17.33;;;12.43;;
17153;SDS011;8692;52.164;7.558;2024-03-08T00:17:44;17.87;;;12.07;;
17153;SDS011;8692;52.164;7.558;2024-03-08T00:20:13;18.23;;;12.67;;
17153;SDS011;8692;52.164;7.558;2024-03-08T00:22:41;16.37;;;11.80;;
17153;SDS011;8692;52.164;7.558;2024-03-08T00:25:09;17.37;;;12.10;;
17153;SDS011;8692;52.164;7.558;2024-03-08T00:27:38;16.70;;;11.87;;
17153;SDS011;8692;52.164;7.558;2024-03-08T00:30:06;16.33;;;11.67;;
17153;SDS011;8692;52.164;7.558;2024-03-08T00:32:35;17.50;;;12.00;;
17153;SDS011;8692;52.164;7.558;2024-03-08T00:35:06;17.50;;;13.07;;
17153;SDS011;8692;52.164;7.558;2024-03-08T00:37:34;14.27;;;11.87;;
17153;SDS011;8692;52.164;7.558;2024-03-08T00:40:03;19.93;;;12.13;;
17153;SDS011;8692;52.164;7.558;2024-03-08T00:42:33;16.30;;;12.63;;
17153;SDS011;8692;52.164;7.558;2024-03-08T00:45:01;17.30;;;11.80;;
17153;SDS011;8692;52.164;7.558;2024-03-08T00:47:30;17.03;;;13.20;;
17153;SDS011;8692;52.164;7.558;2024-03-08T00:49:58;15.77;;;11.43;;
17153;SDS011;8692;52.164;7.558;2024-03-08T00:52:27;18.57;;;12.50;;
17153;SDS011;8692;52.164;7.558;2024-03-08T00:54:55;15.77;;;11.03;;
17153;SDS011;8692;52.164;7.558;2024-03-08T00:57:23;16.23;;;12.83;;
17153;SDS011;8692;52.164;7.558;2024-03-08T00:59:51;16.83;;;12.50;;
17153;SDS011;8692;52.164;7.558;2024-03-08T01:02:19;23.57;;;13.33;;
17153;SDS011;8692;52.164;7.558;2024-03-08T01:04:49;16.83;;;12.10;;
17153;SDS011;8692;52.164;7.558;2024-03-08T01:07:17;18.00;;;12.43;;
17153;SDS011;8692;52.164;7.558;2024-03-08T01:09:47;18.83;;;12.33;;
17153;SDS011;8692;52.164;7.558;2024-03-08T01:12:15;19.63;;;13.37;;
17153;SDS011;8692;52.164;7.558;2024-03-08T01:14:43;18.83;;;12.97;;
17153;SDS011;8692;52.164;7.558;2024-03-08T01:17:11;18.07;;;13.37;;
17153;SDS011;8692;52.164;7.558;2024-03-08T01:19:39;18.20;;;12.30;;
17153;SDS011;8692;52.164;7.558;2024-03-08T01:22:07;16.53;;;12.30;;
17153;SDS011;8692;52.164;7.558;2024-03-08T01:24:35;17.93;;;12.53;;
17153;SDS011;8692;52.164;7.558;2024-03-08T01:27:05;15.10;;;12.33;;
17153;SDS011;8692;52.164;7.558;2024-03-08T01:29:35;23.13;;;13.53;;
17153;SDS011;8692;52.164;7.558;2024-03-08T01:32:05;17.60;;;12.77;;
17153;SDS011;8692;52.164;7.558;2024-03-08T01:34:33;19.83;;;13.13;;
17153;SDS011;8692;52.164;7.558;2024-03-08T01:37:01;16.93;;;13.30;;
17153;SDS011;8692;52.164;7.558;2024-03-08T01:39:29;20.97;;;13.57;;
17153;SDS011;8692;52.164;7.558;2024-03-08T01:41:58;17.70;;;13.57;;
17153;SDS011;8692;52.164;7.558;2024-03-08T01:44:28;20.70;;;14.57;;
17153;SDS011;8692;52.164;7.558;2024-03-08T01:46:57;23.17;;;13.60;;
17153;SDS011;8692;52.164;7.558;2024-03-08T01:49:26;20.83;;;14.57;;
17153;SDS011;8692;52.164;7.558;2024-03-08T01:51:55;16.67;;;12.70;;
17153;SDS011;8692;52.164;7.558;2024-03-08T01:54:23;17.67;;;13.77;;
17153;SDS011;8692;52.164;7.558;2024-03-08T01:56:52;20.60;;;13.90;;
17153;SDS011;8692;52.164;7.558;2024-03-08T01:59:20;19.60;;;13.43;;
17153;SDS011;8692;52.164;7.558;2024-03-08T02:01:50;19.83;;;13.83;;
17153;SDS011;8692;52.164;7.558;2024-03-08T02:04:19;19.70;;;14.17;;
17153;SDS011;8692;52.164;7.558;2024-03-08T02:06:48;21.07;;;14.20;;
17153;SDS011;8692;52.164;7.558;2024-03-08T02:09:16;18.37;;;13.37;;
17153;SDS011;8692;52.164;7.558;2024-03-08T02:11:44;21.33;;;13.63;;
17153;SDS011;8692;52.164;7.558;2024-03-08T02:14:13;16.87;;;13.30;;
17153;SDS011;8692;52.164;7.558;2024-03-08T02:16:41;17.93;;;13.93;;
17153;SDS011;8692;52.164;7.558;2024-03-08T02:19:11;22.13;;;14.23;;
17153;SDS011;8692;52.164;7.558;2024-03-08T02:21:40;18.60;;;14.50;;
17153;SDS011;8692;52.164;7.558;2024-03-08T02:24:08;18.60;;;13.80;;
17153;SDS011;8692;52.164;7.558;2024-03-08T02:26:36;20.07;;;14.17;;
17153;SDS011;8692;52.164;7.558;2024-03-08T02:29:04;20.20;;;14.17;;
17153;SDS011;8692;52.164;7.558;2024-03-08T02:31:33;19.40;;;13.70;;
17153;SDS011;8692;52.164;7.558;2024-03-08T02:34:00;21.33;;;14.57;;
17153;SDS011;8692;52.164;7.558;2024-03-08T02:36:28;19.07;;;13.87;;
17153;SDS011;8692;52.164;7.558;2024-03-08T02:39:02;20.60;;;15.17;;
17153;SDS011;8692;52.164;7.558;2024-03-08T02:41:31;19.33;;;13.73;;
17153;SDS011;8692;52.164;7.558;2024-03-08T02:43:59;19.63;;;13.87;;
17153;SDS011;8692;52.164;7.558;2024-03-08T02:46:27;20.47;;;14.70;;
17153;SDS011;8692;52.164;7.558;2024-03-08T02:48:56;20.20;;;14.13;;
17153;SDS011;8692;52.164;7.558;2024-03-08T02:51:24;23.00;;;15.10;;
17153;SDS011;8692;52.164;7.558;2024-03-08T02:53:53;21.20;;;13.90;;
17153;SDS011;8692;52.164;7.558;2024-03-08T02:56:22;20.03;;;14.30;;
17153;SDS011;8692;52.164;7.558;2024-03-08T02:58:50;21.60;;;16.20;;
17153;SDS011;8692;52.164;7.558;2024-03-08T03:01:18;19.97;;;15.13;;
17153;SDS011;8692;52.164;7.558;2024-03-08T03:03:47;19.87;;;14.63;;
17153;SDS011;8692;52.164;7.558;2024-03-08T03:06:14;18.83;;;14.97;;
17153;SDS011;8692;52.164;7.558;2024-03-08T03:08:43;17.57;;;13.40;;
17153;SDS011;8692;52.164;7.558;2024-03-08T03:11:12;20.47;;;15.10;;
17153;SDS011;8692;52.164;7.558;2024-03-08T03:13:42;23.27;;;14.57;;
17153;SDS011;8692;52.164;7.558;2024-03-08T03:16:16;22.10;;;14.93;;
17153;SDS011;8692;52.164;7.558;2024-03-08T03:18:46;19.53;;;15.07;;
17153;SDS011;8692;52.164;7.558;2024-03-08T03:21:14;22.17;;;15.37;;
17153;SDS011;8692;52.164;7.558;2024-03-08T03:23:43;21.30;;;15.57;;
17153;SDS011;8692;52.164;7.558;2024-03-08T03:26:11;21.30;;;15.47;;
17153;SDS011;8692;52.164;7.558;2024-03-08T03:28:39;21.50;;;15.93;;
17153;SDS011;8692;52.164;7.558;2024-03-08T03:31:09;20.30;;;15.13;;
17153;SDS011;8692;52.164;7.558;2024-03-08T03:33:40;25.93;;;16.60;;
17153;SDS011;8692;52.164;7.558;2024-03-08T03:36:08;23.40;;;16.47;;
17153;SDS011;8692;52.164;7.558;2024-03-08T03:38:38;18.37;;;14.37;;
17153;SDS011;8692;52.164;7.558;2024-03-08T03:41:06;24.03;;;15.80;;
17153;SDS011;8692;52.164;7.558;2024-03-08T03:43:37;23.33;;;15.97;;
17153;SDS011;8692;52.164;7.558;2024-03-08T03:46:07;20.93;;;15.20;;
17153;SDS011;8692;52.164;7.558;2024-03-08T03:48:37;21.67;;;16.43;;
17153;SDS011;8692;52.164;7.558;2024-03-08T03:51:05;22.07;;;16.07;;
17153;SDS011;8692;52.164;7.558;2024-03-08T03:53:33;23.33;;;15.83;;
17153;SDS011;8692;52.164;7.558;2024-03-08T03:56:01;22.10;;;15.50;;
17153;SDS011;8692;52.164;7.558;2024-03-08T03:58:33;22.27;;;16.70;;
17153;SDS011;8692;52.164;7.558;2024-03-08T04:01:01;22.27;;;15.67;;
17153;SDS011;8692;52.164;7.558;2024-03-08T04:03:33;22.73;;;15.10;;
17153;SDS011;8692;52.164;7.558;2024-03-08T04:06:01;21.90;;;15.70;;
17153;SDS011;8692;52.164;7.558;2024-03-08T04:08:29;21.53;;;15.57;;
17153;SDS011;8692;52.164;7.558;2024-03-08T04:11:00;23.60;;;15.93;;
17153;SDS011;8692;52.164;7.558;2024-03-08T04:13:28;23.40;;;16.13;;
17153;SDS011;8692;52.164;7.558;2024-03-08T04:15:56;23.03;;;16.30;;
17153;SDS011;8692;52.164;7.558;2024-03-08T04:18:24;19.57;;;14.60;;
17153;SDS011;8692;52.164;7.558;2024-03-08T04:20:54;21.40;;;16.80;;
17153;SDS011;8692;52.164;7.558;2024-03-08T04:23:22;24.07;;;16.43;;
17153;SDS011;8692;52.164;7.558;2024-03-08T04:25:50;22.10;;;15.97;;
17153;SDS011;8692;52.164;7.558;2024-03-08T04:28:18;17.93;;;14.13;;
17153;SDS011;8692;52.164;7.558;2024-03-08T04:30:46;20.30;;;14.87;;
17153;SDS011;8692;52.164;7.558;2024-03-08T04:33:14;23.93;;;16.77;;
17153;SDS011;8692;52.164;7.558;2024-03-08T04:35:45;22.67;;;15.87;;
17153;SDS011;8692;52.164;7.558;2024-03-08T04:38:14;23.67;;;15.90;;
17153;SDS011;8692;52.164;7.558;2024-03-08T04:40:42;23.30;;;16.53;;
17153;SDS011;8692;52.164;7.558;2024-03-08T04:43:10;20.57;;;16.03;;
17153;SDS011;8692;52.164;7.558;2024-03-08T04:45:39;22.20;;;16.03;;
17153;SDS011;8692;52.164;7.558;2024-03-08T04:48:09;24.43;;;15.97;;
17153;SDS011;8692;52.164;7.558;2024-03-08T04:50:38;21.70;;;16.20;;
17153;SDS011;8692;52.164;7.558;2024-03-08T04:53:06;22.87;;;15.97;;
17153;SDS011;8692;52.164;7.558;2024-03-08T04:55:36;22.10;;;15.40;;
17153;SDS011;8692;52.164;7.558;2024-03-08T04:58:04;24.43;;;15.07;;
17153;SDS011;8692;52.164;7.558;2024-03-08T05:00:33;23.80;;;16.77;;
17153;SDS011;8692;52.164;7.558;2024-03-08T05:03:01;20.50;;;15.27;;
17153;SDS011;8692;52.164;7.558;2024-03-08T05:05:31;22.17;;;15.20;;
17153;SDS011;8692;52.164;7.558;2024-03-08T05:07:59;18.33;;;14.93;;
17153;SDS011;8692;52.164;7.558;2024-03-08T05:10:29;23.80;;;15.33;;
17153;SDS011;8692;52.164;7.558;2024-03-08T05:12:58;21.87;;;15.73;;
17153;SDS011;8692;52.164;7.558;2024-03-08T05:15:26;23.10;;;16.20;;
17153;SDS011;8692;52.164;7.558;2024-03-08T05:17:54;21.20;;;15.53;;
17153;SDS011;8692;52.164;7.558;2024-03-08T05:20:24;22.43;;;16.13;;
17153;SDS011;8692;52.164;7.558;2024-03-08T05:22:53;21.40;;;15.50;;
17153;SDS011;8692;52.164;7.558;2024-03-08T05:25:22;23.77;;;16.80;;
17153;SDS011;8692;52.164;7.558;2024-03-08T05:27:51;24.57;;;15.53;;
17153;SDS011;8692;52.164;7.558;2024-03-08T05:30:21;22.90;;;15.33;;
17153;SDS011;8692;52.164;7.558;2024-03-08T05:32:49;22.00;;;15.37;;
17153;SDS011;8692;52.164;7.558;2024-03-08T05:35:17;21.70;;;15.23;;
17153;SDS011;8692;52.164;7.558;2024-03-08T05:37:45;23.80;;;15.77;;
17153;SDS011;8692;52.164;7.558;2024-03-08T05:40:13;23.70;;;15.67;;
17153;SDS011;8692;52.164;7.558;2024-03-08T05:42:46;23.10;;;15.53;;
17153;SDS011;8692;52.164;7.558;2024-03-08T05:45:14;21.30;;;15.17;;
17153;SDS011;8692;52.164;7.558;2024-03-08T05:47:43;22.23;;;15.67;;
17153;SDS011;8692;52.164;7.558;2024-03-08T05:50:12;23.10;;;15.90;;
17153;SDS011;8692;52.164;7.558;2024-03-08T05:52:42;25.63;;;16.47;;
17153;SDS011;8692;52.164;7.558;2024-03-08T05:55:10;22.93;;;15.80;;
17153;SDS011;8692;52.164;7.558;2024-03-08T05:57:40;21.13;;;15.13;;
17153;SDS011;8692;52.164;7.558;2024-03-08T06:00:08;24.67;;;15.90;;
17153;SDS011;8692;52.164;7.558;2024-03-08T06:02:38;23.67;;;16.37;;
17153;SDS011;8692;52.164;7.558;2024-03-08T06:05:10;23.97;;;16.53;;
17153;SDS011;8692;52.164;7.558;2024-03-08T06:07:38;19.17;;;14.60;;
17153;SDS011;8692;52.164;7.558;2024-03-08T06:10:08;24.53;;;16.30;;
17153;SDS011;8692;52.164;7.558;2024-03-08T06:12:38;24.80;;;16.07;;
17153;SDS011;8692;52.164;7.558;2024-03-08T06:15:08;27.27;;;16.50;;
17153;SDS011;8692;52.164;7.558;2024-03-08T06:17:41;27.00;;;16.83;;
17153;SDS011;8692;52.164;7.558;2024-03-08T06:20:11;21.47;;;15.90;;
17153;SDS011;8692;52.164;7.558;2024-03-08T06:22:40;21.90;;;15.80;;
17153;SDS011;8692;52.164;7.558;2024-03-08T06:25:08;23.90;;;16.50;;
17153;SDS011;8692;52.164;7.558;2024-03-08T06:27:37;25.65;;;18.30;;
17153;SDS011;8692;52.164;7.558;2024-03-08T06:30:06;23.30;;;16.83;;
17153;SDS011;8692;52.164;7.558;2024-03-08T06:32:36;22.30;;;16.30;;
17153;SDS011;8692;52.164;7.558;2024-03-08T06:35:04;24.90;;;17.23;;
17153;SDS011;8692;52.164;7.558;2024-03-08T06:37:35;27.43;;;17.13;;
17153;SDS011;8692;52.164;7.558;2024-03-08T06:40:03;24.80;;;16.67;;
17153;SDS011;8692;52.164;7.558;2024-03-08T06:42:34;21.60;;;15.57;;
17153;SDS011;8692;52.164;7.558;2024-03-08T06:45:02;24.53;;;16.97;;
17153;SDS011;8692;52.164;7.558;2024-03-08T06:47:32;27.23;;;17.43;;
17153;SDS011;8692;52.164;7.558;2024-03-08T06:50:01;25.27;;;16.87;;
17153;SDS011;8692;52.164;7.558;2024-03-08T06:52:30;26.57;;;15.93;;
17153;SDS011;8692;52.164;7.558;2024-03-08T06:55:00;22.97;;;16.20;;
17153;SDS011;8692;52.164;7.558;2024-03-08T06:57:31;20.70;;;16.00;;
17153;SDS011;8692;52.164;7.558;2024-03-08T06:59:59;25.47;;;16.83;;
17153;SDS011;8692;52.164;7.558;2024-03-08T07:02:28;22.80;;;16.60;;
17153;SDS011;8692;52.164;7.558;2024-03-08T07:04:56;26.00;;;16.33;;
17153;SDS011;8692;52.164;7.558;2024-03-08T07:07:24;24.03;;;16.67;;
17153;SDS011;8692;52.164;7.558;2024-03-08T07:09:53;24.17;;;17.57;;
17153;SDS011;8692;52.164;7.558;2024-03-08T07:12:24;24.73;;;16.30;;
17153;SDS011;8692;52.164;7.558;2024-03-08T07:14:52;20.70;;;15.10;;
17153;SDS011;8692;52.164;7.558;2024-03-08T07:17:20;24.57;;;16.90;;
17153;SDS011;8692;52.164;7.558;2024-03-08T07:19:50;22.73;;;15.90;;
17153;SDS011;8692;52.164;7.558;2024-03-08T07:22:20;27.33;;;17.67;;
17153;SDS011;8692;52.164;7.558;2024-03-08T07:24:49;26.60;;;16.53;;
17153;SDS011;8692;52.164;7.558;2024-03-08T07:27:38;26.07;;;17.20;;
17153;SDS011;8692;52.164;7.558;2024-03-08T07:30:06;23.67;;;17.13;;
17153;SDS011;8692;52.164;7.558;2024-03-08T07:32:36;25.17;;;16.80;;
17153;SDS011;8692;52.164;7.558;2024-03-08T07:35:05;24.83;;;17.43;;
17153;SDS011;8692;52.164;7.558;2024-03-08T07:37:33;25.17;;;17.30;;
17153;SDS011;8692;52.164;7.558;2024-03-08T07:40:01;26.40;;;16.87;;
17153;SDS011;8692;52.164;7.558;2024-03-08T07:42:29;24.90;;;18.20;;
17153;SDS011;8692;52.164;7.558;2024-03-08T07:44:58;25.93;;;18.87;;
17153;SDS011;8692;52.164;7.558;2024-03-08T07:47:26;27.00;;;17.90;;
17153;SDS011;8692;52.164;7.558;2024-03-08T07:49:56;24.13;;;16.83;;
17153;SDS011;8692;52.164;7.558;2024-03-08T07:52:30;27.90;;;17.83;;
17153;SDS011;8692;52.164;7.558;2024-03-08T07:54:58;24.00;;;16.23;;
17153;SDS011;8692;52.164;7.558;2024-03-08T07:57:26;27.87;;;18.80;;
17153;SDS011;8692;52.164;7.558;2024-03-08T07:59:56;23.73;;;16.97;;
17153;SDS011;8692;52.164;7.558;2024-03-08T08:02:25;27.07;;;17.13;;
17153;SDS011;8692;52.164;7.558;2024-03-08T08:04:53;21.30;;;15.50;;
17153;SDS011;8692;52.164;7.558;2024-03-08T08:07:23;27.20;;;18.20;;
17153;SDS011;8692;52.164;7.558;2024-03-08T08:09:52;25.13;;;17.63;;
17153;SDS011;8692;52.164;7.558;2024-03-08T08:12:20;23.83;;;17.57;;
17153;SDS011;8692;52.164;7.558;2024-03-08T08:14:48;26.67;;;17.60;;
17153;SDS011;8692;52.164;7.558;2024-03-08T08:17:16;22.53;;;17.30;;
17153;SDS011;8692;52.164;7.558;2024-03-08T08:19:46;28.97;;;17.97;;
17153;SDS011;8692;52.164;7.558;2024-03-08T08:22:14;26.10;;;17.50;;
17153;SDS011;8692;52.164;7.558;2024-03-08T08:24:42;26.90;;;19.03;;
17153;SDS011;8692;52.164;7.558;2024-03-08T08:27:10;25.43;;;17.67;;
17153;SDS011;8692;52.164;7.558;2024-03-08T08:29:38;24.63;;;18.17;;
17153;SDS011;8692;52.164;7.558;2024-03-08T08:32:06;23.87;;;17.93;;
17153;SDS011;8692;52.164;7.558;2024-03-08T08:34:34;24.47;;;18.23;;
17153;SDS011;8692;52.164;7.558;2024-03-08T08:37:04;27.10;;;19.43;;
17153;SDS011;8692;52.164;7.558;2024-03-08T08:39:32;22.97;;;17.00;;
17153;SDS011;8692;52.164;7.558;2024-03-08T08:42:00;27.27;;;17.33;;
17153;SDS011;8692;52.164;7.558;2024-03-08T08:44:29;24.40;;;17.97;;
17153;SDS011;8692;52.164;7.558;2024-03-08T08:46:58;21.77;;;16.63;;
17153;SDS011;8692;52.164;7.558;2024-03-08T08:49:37;25.33;;;18.37;;
17153;SDS011;8692;52.164;7.558;2024-03-08T08:52:07;22.90;;;17.77;;
17153;SDS011;8692;52.164;7.558;2024-03-08T08:54:42;27.33;;;18.00;;
17153;SDS011;8692;52.164;7.558;2024-03-08T08:57:15;24.33;;;18.70;;
17153;SDS011;8692;52.164;7.558;2024-03-08T08:59:43;24.47;;;18.27;;
17153;SDS011;8692;52.164;7.558;2024-03-08T09:02:12;24.13;;;18.20;;
17153;SDS011;8692;52.164;7.558;2024-03-08T09:04:44;24.57;;;17.83;;
17153;SDS011;8692;52.164;7.558;2024-03-08T09:07:13;23.13;;;18.57;;
17153;SDS011;8692;52.164;7.558;2024-03-08T09:09:42;26.03;;;19.23;;
17153;SDS011;8692;52.164;7.558;2024-03-08T09:12:10;26.20;;;18.53;;
17153;SDS011;8692;52.164;7.558;2024-03-08T09:14:39;21.83;;;17.17;;
17153;SDS011;8692;52.164;7.558;2024-03-08T09:17:07;23.20;;;17.60;;
17153;SDS011;8692;52.164;7.558;2024-03-08T09:19:35;27.07;;;17.60;;
17153;SDS011;8692;52.164;7.558;2024-03-08T09:22:04;23.27;;;17.30;;
17153;SDS011;8692;52.164;7.558;2024-03-08T09:24:33;23.27;;;17.80;;
17153;SDS011;8692;52.164;7.558;2024-03-08T09:27:01;23.20;;;16.97;;
17153;SDS011;8692;52.164;7.558;2024-03-08T09:29:29;24.57;;;17.20;;
17153;SDS011;8692;52.164;7.558;2024-03-08T09:31:57;25.13;;;18.43;;
17153;SDS011;8692;52.164;7.558;2024-03-08T09:34:25;25.37;;;17.93;;
17153;SDS011;8692;52.164;7.558;2024-03-08T09:37:03;26.07;;;17.77;;
17153;SDS011;8692;52.164;7.558;2024-03-08T09:39:33;24.60;;;17.43;;
17153;SDS011;8692;52.164;7.558;2024-03-08T09:42:01;24.33;;;17.80;;
17153;SDS011;8692;52.164;7.558;2024-03-08T09:44:29;21.80;;;17.00;;
17153;SDS011;8692;52.164;7.558;2024-03-08T09:46:58;29.43;;;18.20;;
17153;SDS011;8692;52.164;7.558;2024-03-08T09:49:28;24.77;;;18.27;;
17153;SDS011;8692;52.164;7.558;2024-03-08T09:51:56;23.87;;;17.80;;
17153;SDS011;8692;52.164;7.558;2024-03-08T09:54:25;22.80;;;17.30;;
17153;SDS011;8692;52.164;7.558;2024-03-08T09:56:55;23.37;;;18.00;;
17153;SDS011;8692;52.164;7.558;2024-03-08T09:59:23;25.83;;;18.00;;
17153;SDS011;8692;52.164;7.558;2024-03-08T10:02:09;23.87;;;17.57;;
17153;SDS011;8692;52.164;7.558;2024-03-08T10:04:42;21.93;;;17.07;;
17153;SDS011;8692;52.164;7.558;2024-03-08T10:07:13;23.07;;;17.83;;
17153;SDS011;8692;52.164;7.558;2024-03-08T10:09:41;22.33;;;17.23;;
17153;SDS011;8692;52.164;7.558;2024-03-08T10:12:15;22.67;;;17.13;;
17153;SDS011;8692;52.164;7.558;2024-03-08T10:14:43;24.60;;;16.77;;
17153;SDS011;8692;52.164;7.558;2024-03-08T10:17:11;28.17;;;17.60;;
17153;SDS011;8692;52.164;7.558;2024-03-08T10:19:41;23.90;;;16.60;;
17153;SDS011;8692;52.164;7.558;2024-03-08T10:22:17;19.27;;;15.23;;
17153;SDS011;8692;52.164;7.558;2024-03-08T10:24:46;20.97;;;17.47;;
17153;SDS011;8692;52.164;7.558;2024-03-08T10:27:16;21.80;;;18.30;;
17153;SDS011;8692;52.164;7.558;2024-03-08T10:29:46;19.17;;;15.67;;
17153;SDS011;8692;52.164;7.558;2024-03-08T10:32:14;23.50;;;18.10;;
17153;SDS011;8692;52.164;7.558;2024-03-08T10:34:42;22.03;;;15.90;;
17153;SDS011;8692;52.164;7.558;2024-03-08T10:37:12;19.93;;;16.33;;
17153;SDS011;8692;52.164;7.558;2024-03-08T10:39:46;24.60;;;18.30;;
17153;SDS011;8692;52.164;7.558;2024-03-08T10:42:27;22.10;;;16.83;;
17153;SDS011;8692;52.164;7.558;2024-03-08T10:45:03;19.27;;;16.13;;
17153;SDS011;8692;52.164;7.558;2024-03-08T10:47:39;20.53;;;16.10;;
17153;SDS011;8692;52.164;7.558;2024-03-08T10:50:10;19.57;;;15.90;;
17153;SDS011;8692;52.164;7.558;2024-03-08T10:52:47;19.57;;;16.47;;
17153;SDS011;8692;52.164;7.558;2024-03-08T10:55:17;19.23;;;15.93;;
17153;SDS011;8692;52.164;7.558;2024-03-08T10:57:48;18.30;;;15.17;;
17153;SDS011;8692;52.164;7.558;2024-03-08T11:00:17;22.43;;;16.13;;
17153;SDS011;8692;52.164;7.558;2024-03-08T11:02:53;18.37;;;15.77;;
17153;SDS011;8692;52.164;7.558;2024-03-08T11:05:31;18.70;;;15.57;;
17153;SDS011;8692;52.164;7.558;2024-03-08T11:08:01;18.70;;;15.57;;
17153;SDS011;8692;52.164;7.558;2024-03-08T11:10:31;17.73;;;15.17;;
17153;SDS011;8692;52.164;7.558;2024-03-08T11:13:00;18.23;;;14.50;;
17153;SDS011;8692;52.164;7.558;2024-03-08T11:15:29;17.17;;;14.70;;
17153;SDS011;8692;52.164;7.558;2024-03-08T11:17:58;18.37;;;14.17;;
17153;SDS011;8692;52.164;7.558;2024-03-08T11:20:27;19.83;;;14.83;;
17153;SDS011;8692;52.164;7.558;2024-03-08T11:22:59;18.83;;;15.50;;
17153;SDS011;8692;52.164;7.558;2024-03-08T11:25:30;18.00;;;14.40;;
17153;SDS011;8692;52.164;7.558;2024-03-08T11:28:08;18.70;;;14.97;;
17153;SDS011;8692;52.164;7.558;2024-03-08T11:30:47;19.33;;;15.00;;
17153;SDS011;8692;52.164;7.558;2024-03-08T11:33:51;17.20;;;14.40;;
17153;SDS011;8692;52.164;7.558;2024-03-08T11:36:21;16.67;;;13.53;;
17153;SDS011;8692;52.164;7.558;2024-03-08T11:38:51;15.57;;;13.97;;
17153;SDS011;8692;52.164;7.558;2024-03-08T11:41:22;19.60;;;14.50;;
17153;SDS011;8692;52.164;7.558;2024-03-08T11:44:01;15.27;;;13.03;;
17153;SDS011;8692;52.164;7.558;2024-03-08T11:46:32;18.03;;;14.47;;
17153;SDS011;8692;52.164;7.558;2024-03-08T11:49:01;17.73;;;15.00;;
17153;SDS011;8692;52.164;7.558;2024-03-08T11:51:36;16.73;;;14.17;;
17153;SDS011;8692;52.164;7.558;2024-03-08T11:54:04;15.87;;;14.00;;
17153;SDS011;8692;52.164;7.558;2024-03-08T11:56:33;16.60;;;14.10;;
17153;SDS011;8692;52.164;7.558;2024-03-08T11:59:03;18.13;;;13.90;;
17153;SDS011;8692;52.164;7.558;2024-03-08T12:01:31;16.97;;;13.67;;
17153;SDS011;8692;52.164;7.558;2024-03-08T12:04:00;19.60;;;15.00;;
17153;SDS011;8692;52.164;7.558;2024-03-08T12:06:36;16.63;;;14.00;;
17153;SDS011;8692;52.164;7.558;2024-03-08T12:09:08;17.40;;;14.53;;
17153;SDS011;8692;52.164;7.558;2024-03-08T12:11:37;17.07;;;14.63;;
17153;SDS011;8692;52.164;7.558;2024-03-08T12:14:06;15.67;;;13.87;;
17153;SDS011;8692;52.164;7.558;2024-03-08T12:16:36;18.27;;;15.67;;
17153;SDS011;8692;52.164;7.558;2024-03-08T12:19:03;17.03;;;14.93;;
17153;SDS011;8692;52.164;7.558;2024-03-08T12:21:32;16.90;;;15.10;;
17153;SDS011;8692;52.164;7.558;2024-03-08T12:24:04;19.13;;;15.33;;
17153;SDS011;8692;52.164;7.558;2024-03-08T12:26:35;17.60;;;14.57;;
17153;SDS011;8692;52.164;7.558;2024-03-08T12:29:18;17.03;;;14.23;;
17153;SDS011;8692;52.164;7.558;2024-03-08T12:31:51;15.97;;;13.83;;
17153;SDS011;8692;52.164;7.558;2024-03-08T12:34:20;16.17;;;13.30;;
17153;SDS011;8692;52.164;7.558;2024-03-08T12:36:49;17.43;;;14.57;;
17153;SDS011;8692;52.164;7.558;2024-03-08T12:39:21;19.13;;;15.70;;
17153;SDS011;8692;52.164;7.558;2024-03-08T12:41:53;18.17;;;14.60;;
17153;SDS011;8692;52.164;7.558;2024-03-08T12:44:25;17.23;;;14.70;;
17153;SDS011;8692;52.164;7.558;2024-03-08T12:46:54;18.10;;;14.37;;
17153;SDS011;8692;52.164;7.558;2024-03-08T12:49:25;17.30;;;15.07;;
17153;SDS011;8692;52.164;7.558;2024-03-08T12:51:53;17.73;;;14.73;;
17153;SDS011;8692;52.164;7.558;2024-03-08T12:54:21;16.47;;;13.73;;
17153;SDS011;8692;52.164;7.558;2024-03-08T12:56:51;20.07;;;14.83;;
17153;SDS011;8692;52.164;7.558;2024-03-08T12:59:21;18.77;;;15.20;;
17153;SDS011;8692;52.164;7.558;2024-03-08T13:01:51;16.63;;;14.83;;
17153;SDS011;8692;52.164;7.558;2024-03-08T13:04:20;17.53;;;14.63;;
17153;SDS011;8692;52.164;7.558;2024-03-08T13:06:49;16.90;;;14.30;;
17153;SDS011;8692;52.164;7.558;2024-03-08T13:09:20;16.27;;;13.23;;
17153;SDS011;8692;52.164;7.558;2024-03-08T13:11:49;16.07;;;14.37;;
17153;SDS011;8692;52.164;7.558;2024-03-08T13:14:18;18.83;;;15.20;;
17153;SDS011;8692;52.164;7.558;2024-03-08T13:16:46;15.67;;;13.43;;
17153;SDS011;8692;52.164;7.558;2024-03-08T13:19:16;17.87;;;13.93;;
17153;SDS011;8692;52.164;7.558;2024-03-08T13:21:48;19.57;;;14.17;;
17153;SDS011;8692;52.164;7.558;2024-03-08T13:24:16;17.73;;;14.33;;
17153;SDS011;8692;52.164;7.558;2024-03-08T13:26:46;16.37;;;14.13;;
17153;SDS011;8692;52.164;7.558;2024-03-08T13:29:15;17.93;;;14.90;;
17153;SDS011;8692;52.164;7.558;2024-03-08T13:31:44;18.43;;;15.47;;
17153;SDS011;8692;52.164;7.558;2024-03-08T13:34:13;18.47;;;15.53;;
17153;SDS011;8692;52.164;7.558;2024-03-08T13:36:43;16.27;;;13.97;;
17153;SDS011;8692;52.164;7.558;2024-03-08T13:39:12;18.73;;;15.07;;
17153;SDS011;8692;52.164;7.558;2024-03-08T13:41:42;21.87;;;15.27;;
17153;SDS011;8692;52.164;7.558;2024-03-08T13:44:11;16.60;;;14.20;;
17153;SDS011;8692;52.164;7.558;2024-03-08T13:46:39;16.57;;;14.30;;
17153;SDS011;8692;52.164;7.558;2024-03-08T13:49:08;17.30;;;14.07;;
17153;SDS011;8692;52.164;7.558;2024-03-08T13:51:37;19.07;;;15.30;;
17153;SDS011;8692;52.164;7.558;2024-03-08T13:54:06;19.37;;;14.40;;
17153;SDS011;8692;52.164;7.558;2024-03-08T13:56:34;15.90;;;14.27;;
17153;SDS011;8692;52.164;7.558;2024-03-08T13:59:03;16.90;;;14.13;;
17153;SDS011;8692;52.164;7.558;2024-03-08T14:01:31;19.53;;;15.93;;
17153;SDS011;8692;52.164;7.558;2024-03-08T14:04:02;16.80;;;15.00;;
17153;SDS011;8692;52.164;7.558;2024-03-08T14:06:30;16.87;;;14.10;;
17153;SDS011;8692;52.164;7.558;2024-03-08T14:08:58;19.50;;;15.43;;
17153;SDS011;8692;52.164;7.558;2024-03-08T14:11:28;16.90;;;14.07;;
17153;SDS011;8692;52.164;7.558;2024-03-08T14:13:56;18.13;;;15.20;;
17153;SDS011;8692;52.164;7.558;2024-03-08T14:16:24;15.30;;;13.40;;
17153;SDS011;8692;52.164;7.558;2024-03-08T14:18:53;16.30;;;14.40;;
17153;SDS011;8692;52.164;7.558;2024-03-08T14:21:21;17.27;;;14.43;;
17153;SDS011;8692;52.164;7.558;2024-03-08T14:23:49;15.90;;;14.07;;
17153;SDS011;8692;52.164;7.558;2024-03-08T14:26:18;16.83;;;13.73;;
17153;SDS011;8692;52.164;7.558;2024-03-08T14:28:48;15.27;;;13.20;;
17153;SDS011;8692;52.164;7.558;2024-03-08T14:31:18;14.83;;;13.00;;
17153;SDS011;8692;52.164;7.558;2024-03-08T14:33:46;16.40;;;13.17;;
17153;SDS011;8692;52.164;7.558;2024-03-08T14:36:15;16.50;;;13.23;;
17153;SDS011;8692;52.164;7.558;2024-03-08T14:38:45;15.40;;;13.20;;
17153;SDS011;8692;52.164;7.558;2024-03-08T14:41:14;14.83;;;12.60;;
17153;SDS011;8692;52.164;7.558;2024-03-08T14:43:42;17.07;;;12.77;;
17153;SDS011;8692;52.164;7.558;2024-03-08T14:46:13;13.23;;;11.83;;